createdAt,value
2018-08-28T00:00:32.613Z,17.00
2018-08-28T00:03:01.900Z,17.00
2018-08-28T00:05:31.228Z,16.90
2018-08-28T00:08:00.563Z,16.80
2018-08-28T00:10:29.801Z,16.70
2018-08-28T00:12:59.136Z,16.60
2018-08-28T00:15:28.406Z,16.50
2018-08-28T00:17:57.709Z,16.50
2018-08-28T00:20:26.910Z,16.40
2018-08-28T00:22:56.290Z,16.50
2018-08-28T00:25:25.562Z,16.40
2018-08-28T00:27:54.910Z,16.40
2018-08-28T00:30:24.215Z,16.30
2018-08-28T00:32:53.553Z,16.30
2018-08-28T00:35:22.831Z,16.30
2018-08-28T00:37:52.016Z,16.20
2018-08-28T00:40:21.338Z,16.10
2018-08-28T00:42:50.587Z,16.10
2018-08-28T00:45:19.907Z,16.00
2018-08-28T00:47:55.602Z,15.90
2018-08-28T00:50:24.927Z,15.90
2018-08-28T00:52:54.504Z,15.90
2018-08-28T00:55:23.773Z,15.90
2018-08-28T00:57:53.083Z,15.80
2018-08-28T01:00:22.475Z,15.80
2018-08-28T01:02:51.829Z,15.80
2018-08-28T01:05:22.186Z,15.70
2018-08-28T01:07:51.783Z,15.70
2018-08-28T01:10:21.110Z,15.70
2018-08-28T01:12:50.456Z,15.60
2018-08-28T01:15:19.792Z,15.60
2018-08-28T01:17:49.026Z,15.50
2018-08-28T01:20:18.375Z,15.50
2018-08-28T01:22:47.701Z,15.40
2018-08-28T01:25:16.960Z,15.40
2018-08-28T01:27:46.251Z,15.40
2018-08-28T01:30:19.990Z,15.40
2018-08-28T01:32:49.326Z,15.30
2018-08-28T01:35:18.614Z,15.30
2018-08-28T01:37:47.913Z,15.20
2018-08-28T01:40:17.244Z,15.10
2018-08-28T01:42:46.475Z,15.10
2018-08-28T01:45:15.798Z,15.00
2018-08-28T01:47:45.118Z,15.00
2018-08-28T01:50:14.527Z,14.90
2018-08-28T01:52:43.848Z,14.80
2018-08-28T01:55:13.170Z,14.70
2018-08-28T01:57:42.415Z,14.60
2018-08-28T02:00:11.752Z,14.60
2018-08-28T02:02:41.052Z,14.50
2018-08-28T02:05:10.363Z,14.50
2018-08-28T02:07:39.678Z,14.50
2018-08-28T02:10:09.070Z,14.40
2018-08-28T02:12:38.366Z,14.40
2018-08-28T02:15:07.755Z,14.30
2018-08-28T02:17:36.998Z,14.20
2018-08-28T02:20:06.430Z,14.20
2018-08-28T02:22:35.726Z,14.10
2018-08-28T02:25:05.675Z,14.10
2018-08-28T02:27:34.978Z,14.10
2018-08-28T02:30:04.340Z,14.00
2018-08-28T02:32:33.665Z,13.90
2018-08-28T02:35:02.935Z,13.90
2018-08-28T02:37:32.246Z,13.90
2018-08-28T02:40:01.507Z,13.90
2018-08-28T02:42:30.791Z,13.90
2018-08-28T02:45:00.099Z,13.80
2018-08-28T02:47:29.434Z,13.80
2018-08-28T02:49:58.722Z,13.80
2018-08-28T02:52:28.029Z,13.70
2018-08-28T02:54:57.302Z,13.70
2018-08-28T02:57:26.517Z,13.70
2018-08-28T02:59:55.785Z,13.60
2018-08-28T03:02:24.991Z,13.60
2018-08-28T03:04:54.267Z,13.60
2018-08-28T03:07:23.555Z,13.60
2018-08-28T03:09:52.898Z,13.60
2018-08-28T03:12:22.186Z,13.50
2018-08-28T03:14:51.395Z,13.50
2018-08-28T03:17:20.730Z,13.50
2018-08-28T03:19:50.000Z,13.50
2018-08-28T03:22:19.290Z,13.40
2018-08-28T03:27:17.329Z,13.40
2018-08-28T03:29:46.615Z,13.40
2018-08-28T03:32:15.879Z,13.40
2018-08-28T03:34:45.111Z,13.30
2018-08-28T03:37:14.395Z,13.20
2018-08-28T03:39:44.359Z,13.20
2018-08-28T03:42:13.715Z,13.20
2018-08-28T03:44:43.023Z,13.20
2018-08-28T03:47:12.346Z,13.10
2018-08-28T03:49:41.710Z,13.10
2018-08-28T03:52:10.986Z,13.10
2018-08-28T03:54:40.248Z,13.00
2018-08-28T03:57:09.587Z,13.00
2018-08-28T03:59:38.909Z,12.90
2018-08-28T04:02:08.223Z,13.00
2018-08-28T04:04:37.536Z,13.00
2018-08-28T04:07:06.814Z,13.00
2018-08-28T04:09:36.051Z,12.90
2018-08-28T04:12:05.420Z,12.90
2018-08-28T04:14:34.674Z,12.80
2018-08-28T04:17:04.074Z,12.80
2018-08-28T04:19:33.417Z,12.70
2018-08-28T04:22:02.692Z,12.70
2018-08-28T04:24:31.958Z,12.60
2018-08-28T04:27:01.226Z,12.60
2018-08-28T04:29:30.506Z,12.60
2018-08-28T04:31:59.755Z,12.60
2018-08-28T04:34:29.072Z,12.50
2018-08-28T04:36:58.326Z,12.50
2018-08-28T04:39:27.719Z,12.40
2018-08-28T04:41:57.009Z,12.30
2018-08-28T04:44:26.295Z,12.20
2018-08-28T04:46:55.570Z,12.20
2018-08-28T04:49:24.854Z,12.00
2018-08-28T04:51:54.250Z,12.00
2018-08-28T04:54:23.660Z,12.10
2018-08-28T04:56:52.823Z,12.10
2018-08-28T04:59:22.115Z,12.10
2018-08-28T05:01:51.349Z,12.10
2018-08-28T05:04:20.658Z,12.20
2018-08-28T05:06:49.934Z,12.20
2018-08-28T05:09:19.227Z,12.20
2018-08-28T05:11:48.495Z,12.20
2018-08-28T05:14:17.746Z,12.20
2018-08-28T05:16:47.061Z,12.10
2018-08-28T05:19:16.398Z,12.20
2018-08-28T05:21:45.660Z,12.20
2018-08-28T05:24:14.965Z,12.20
2018-08-28T05:26:44.523Z,12.20
2018-08-28T05:29:13.850Z,12.30
2018-08-28T05:31:44.415Z,12.20
2018-08-28T05:34:13.798Z,12.20
2018-08-28T05:36:43.132Z,12.30
2018-08-28T05:39:12.454Z,12.30
2018-08-28T05:41:41.730Z,12.30
2018-08-28T05:44:12.442Z,12.40
2018-08-28T05:46:41.714Z,12.40
2018-08-28T05:49:11.007Z,12.40
2018-08-28T05:51:40.309Z,12.40
2018-08-28T05:54:09.594Z,12.30
2018-08-28T05:56:38.893Z,12.40
2018-08-28T05:59:08.279Z,12.50
2018-08-28T06:01:37.583Z,12.50
2018-08-28T06:04:07.185Z,12.40
2018-08-28T06:06:36.474Z,12.50
2018-08-28T06:09:06.652Z,12.50
2018-08-28T06:11:36.015Z,12.50
2018-08-28T06:14:05.631Z,12.60
2018-08-28T06:16:34.963Z,12.70
2018-08-28T06:19:04.362Z,12.80
2018-08-28T06:21:33.735Z,12.80
2018-08-28T06:24:03.112Z,12.90
2018-08-28T06:26:32.631Z,13.00
2018-08-28T06:29:02.586Z,13.00
2018-08-28T06:31:31.899Z,13.20
2018-08-28T06:34:01.255Z,13.30
2018-08-28T06:36:30.534Z,13.40
2018-08-28T06:38:59.849Z,13.60
2018-08-28T06:41:29.525Z,13.80
2018-08-28T06:43:58.830Z,13.90
2018-08-28T06:46:28.147Z,14.10
2018-08-28T06:48:57.502Z,14.20
2018-08-28T06:51:26.827Z,14.30
2018-08-28T06:53:56.124Z,14.50
2018-08-28T06:56:25.511Z,14.70
2018-08-28T06:58:54.780Z,14.90
2018-08-28T07:01:24.025Z,15.00
2018-08-28T07:03:53.416Z,15.20
2018-08-28T07:06:22.749Z,15.40
2018-08-28T07:08:52.052Z,15.60
2018-08-28T07:11:21.324Z,15.80
2018-08-28T07:13:50.608Z,16.10
2018-08-28T07:16:19.930Z,16.20
2018-08-28T07:18:49.344Z,16.40
2018-08-28T07:21:18.690Z,16.70
2018-08-28T07:23:47.907Z,16.90
2018-08-28T07:26:17.267Z,17.10
2018-08-28T07:28:46.640Z,17.30
2018-08-28T07:31:15.962Z,17.40
2018-08-28T07:33:45.252Z,17.60
2018-08-28T07:36:14.523Z,17.90
2018-08-28T07:38:43.835Z,18.10
2018-08-28T07:41:13.122Z,18.50
2018-08-28T07:43:42.350Z,18.70
2018-08-28T07:46:11.616Z,18.90
2018-08-28T07:48:41.028Z,19.10
2018-08-28T07:51:10.455Z,19.30
2018-08-28T07:53:39.653Z,19.40
2018-08-28T07:56:08.962Z,19.60
2018-08-28T07:58:38.254Z,19.80
2018-08-28T08:01:07.634Z,19.90
2018-08-28T08:03:36.939Z,20.00
2018-08-28T08:06:06.247Z,20.30
2018-08-28T08:08:35.691Z,20.60
2018-08-28T08:11:04.976Z,20.70
2018-08-28T08:13:34.266Z,20.90
2018-08-28T08:16:03.548Z,21.10
2018-08-28T08:18:33.026Z,21.50
2018-08-28T08:21:02.323Z,21.50
2018-08-28T08:23:31.698Z,21.60
2018-08-28T08:26:01.035Z,21.90
2018-08-28T08:28:30.471Z,22.10
2018-08-28T08:31:00.104Z,22.40
2018-08-28T08:33:29.499Z,22.40
2018-08-28T08:35:58.914Z,22.80
2018-08-28T08:38:28.318Z,22.90
2018-08-28T08:40:57.617Z,23.30
2018-08-28T08:43:26.886Z,23.30
2018-08-28T08:45:56.091Z,23.60
2018-08-28T08:48:25.491Z,23.70
2018-08-28T08:50:55.197Z,23.70
2018-08-28T08:53:24.534Z,23.80
2018-08-28T08:55:54.024Z,24.20
2018-08-28T08:58:23.539Z,24.50
2018-08-28T09:00:53.564Z,24.70
2018-08-28T09:03:22.919Z,24.40
2018-08-28T09:05:52.262Z,24.60
2018-08-28T09:08:21.637Z,24.80
2018-08-28T09:10:50.905Z,25.00
2018-08-28T09:13:22.365Z,25.00
2018-08-28T09:15:51.740Z,25.20
2018-08-28T09:18:21.156Z,25.00
2018-08-28T09:20:50.442Z,25.40
2018-08-28T09:23:19.820Z,25.70
2018-08-28T09:25:49.172Z,25.90
2018-08-28T09:28:18.499Z,25.80
2018-08-28T09:30:48.016Z,25.90
2018-08-28T09:33:17.359Z,25.90
2018-08-28T09:35:53.803Z,26.20
2018-08-28T09:38:23.242Z,26.60
2018-08-28T09:40:52.513Z,26.50
2018-08-28T09:43:21.866Z,26.30
2018-08-28T09:45:51.119Z,26.40
2018-08-28T09:48:20.666Z,26.90
2018-08-28T09:50:49.828Z,27.10
2018-08-28T09:53:19.044Z,27.10
2018-08-28T09:55:48.830Z,27.20
2018-08-28T09:58:18.173Z,27.30
2018-08-28T10:00:52.886Z,27.20
2018-08-28T10:03:22.635Z,26.90
2018-08-28T10:05:53.113Z,27.00
2018-08-28T10:08:22.419Z,27.30
2018-08-28T10:10:51.672Z,27.30
2018-08-28T10:13:20.911Z,27.70
2018-08-28T10:15:50.254Z,28.30
2018-08-28T10:18:19.679Z,28.10
2018-08-28T10:20:49.071Z,28.20
2018-08-28T10:23:18.400Z,27.90
2018-08-28T10:25:47.747Z,28.10
2018-08-28T10:28:16.971Z,28.40
2018-08-28T10:30:46.335Z,28.60
2018-08-28T10:33:15.645Z,28.70
2018-08-28T10:35:44.899Z,28.10
2018-08-28T10:38:14.155Z,28.70
2018-08-28T10:40:43.490Z,29.10
2018-08-28T10:43:12.796Z,29.30
2018-08-28T10:45:42.115Z,29.60
2018-08-28T10:48:11.542Z,30.00
2018-08-28T10:50:40.829Z,30.50
2018-08-28T10:53:10.102Z,30.60
2018-08-28T10:55:39.339Z,30.20
2018-08-28T10:58:08.621Z,30.40
2018-08-28T11:00:37.935Z,30.50
2018-08-28T11:03:07.384Z,30.40
2018-08-28T11:05:36.598Z,30.40
2018-08-28T11:08:05.818Z,30.30
2018-08-28T11:10:35.121Z,30.40
2018-08-28T11:13:04.489Z,30.60
2018-08-28T11:15:33.802Z,30.60
2018-08-28T11:18:03.055Z,30.20
2018-08-28T11:20:32.338Z,30.10
2018-08-28T11:23:01.888Z,30.20
2018-08-28T11:25:31.429Z,30.50
2018-08-28T11:28:07.780Z,30.70
2018-08-28T11:30:37.156Z,30.00
2018-08-28T11:33:06.551Z,29.80
2018-08-28T11:35:35.887Z,30.10
2018-08-28T11:38:05.107Z,30.70
2018-08-28T11:40:34.373Z,31.00
2018-08-28T11:43:03.612Z,31.40
2018-08-28T11:45:33.014Z,31.70
2018-08-28T11:48:02.385Z,31.80
2018-08-28T11:50:31.670Z,32.00
2018-08-28T11:53:00.944Z,31.90
2018-08-28T11:55:30.170Z,32.10
2018-08-28T11:57:59.480Z,31.90
2018-08-28T12:00:28.839Z,31.20
2018-08-28T12:02:58.139Z,30.50
2018-08-28T12:05:27.426Z,30.70
2018-08-28T12:07:56.849Z,31.40
2018-08-28T12:10:26.279Z,32.00
2018-08-28T12:12:55.839Z,32.40
2018-08-28T12:15:25.134Z,32.50
2018-08-28T12:17:54.420Z,32.60
2018-08-28T12:20:23.796Z,32.50
2018-08-28T12:22:53.145Z,32.30
2018-08-28T12:25:22.455Z,32.50
2018-08-28T12:27:51.754Z,32.50
2018-08-28T12:30:20.955Z,32.70
2018-08-28T12:32:50.291Z,32.50
2018-08-28T12:35:19.550Z,32.40
2018-08-28T12:37:48.871Z,32.50
2018-08-28T12:40:18.211Z,32.30
2018-08-28T12:42:47.499Z,32.50
2018-08-28T12:45:16.745Z,32.40
2018-08-28T12:47:46.040Z,32.30
2018-08-28T12:50:17.490Z,33.10
2018-08-28T12:52:46.948Z,32.50
2018-08-28T12:55:16.143Z,32.70
2018-08-28T12:57:45.301Z,32.70
2018-08-28T13:00:14.386Z,32.70
2018-08-28T13:02:43.445Z,32.90
2018-08-28T13:05:12.454Z,32.90
2018-08-28T13:07:41.502Z,33.10
2018-08-28T13:10:10.554Z,32.90
2018-08-28T13:12:39.625Z,33.20
2018-08-28T13:15:08.690Z,33.20
2018-08-28T13:17:37.738Z,33.10
2018-08-28T13:20:06.852Z,32.80
2018-08-28T13:22:35.910Z,33.00
2018-08-28T13:25:05.030Z,33.40
2018-08-28T13:27:34.133Z,33.60
2018-08-28T13:30:03.230Z,33.80
2018-08-28T13:32:32.414Z,33.40
2018-08-28T13:35:01.532Z,33.30
2018-08-28T13:37:30.612Z,33.50
2018-08-28T13:39:59.654Z,34.00
2018-08-28T13:42:28.705Z,34.80
2018-08-28T13:44:57.713Z,34.60
2018-08-28T13:47:26.781Z,34.20
2018-08-28T13:49:55.801Z,34.20
2018-08-28T13:52:24.829Z,34.00
2018-08-28T13:54:53.876Z,33.30
2018-08-28T13:57:23.208Z,33.00
2018-08-28T13:59:52.291Z,32.80
2018-08-28T14:02:21.343Z,32.90
2018-08-28T14:04:50.390Z,33.50
2018-08-28T14:07:19.432Z,34.00
2018-08-28T14:09:48.469Z,34.10
2018-08-28T14:12:17.590Z,33.90
2018-08-28T14:14:46.693Z,33.30
2018-08-28T14:17:16.741Z,33.00
2018-08-28T14:19:45.815Z,32.60
2018-08-28T14:22:14.959Z,32.30
2018-08-28T14:24:44.057Z,32.40
2018-08-28T14:27:13.156Z,32.60
2018-08-28T14:29:42.221Z,32.50
2018-08-28T14:32:11.253Z,32.20
2018-08-28T14:34:40.309Z,32.00
2018-08-28T14:37:09.438Z,32.20
2018-08-28T14:39:38.513Z,31.90
2018-08-28T14:42:07.580Z,31.70
2018-08-28T14:44:36.660Z,31.60
2018-08-28T14:47:06.237Z,31.20
2018-08-28T14:49:35.288Z,31.40
2018-08-28T14:52:04.362Z,31.70
2018-08-28T14:54:33.426Z,32.00
2018-08-28T14:57:02.477Z,31.90
2018-08-28T14:59:31.533Z,31.60
2018-08-28T15:02:01.631Z,31.50
2018-08-28T15:04:30.669Z,31.80
2018-08-28T15:06:59.826Z,31.70
2018-08-28T15:09:28.779Z,32.10
2018-08-28T15:11:57.809Z,32.50
2018-08-28T15:14:26.903Z,32.80
2018-08-28T15:16:55.911Z,32.40
2018-08-28T15:19:24.954Z,32.10
2018-08-28T15:21:54.000Z,32.10
2018-08-28T15:24:23.042Z,32.40
2018-08-28T15:26:52.080Z,32.40
2018-08-28T15:29:21.112Z,32.20
2018-08-28T15:31:50.161Z,32.30
2018-08-28T15:34:19.195Z,32.20
2018-08-28T15:36:48.245Z,32.20
2018-08-28T15:39:17.325Z,32.30
2018-08-28T15:41:46.401Z,32.20
2018-08-28T15:44:15.401Z,31.90
2018-08-28T15:46:44.437Z,31.40
2018-08-28T15:49:13.501Z,31.50
2018-08-28T15:51:42.529Z,31.50
2018-08-28T15:54:11.616Z,31.50
2018-08-28T15:56:40.725Z,31.50
2018-08-28T15:59:09.910Z,31.40
2018-08-28T16:01:38.913Z,31.30
2018-08-28T16:04:11.705Z,31.50
2018-08-28T16:06:40.758Z,31.50
2018-08-28T16:09:09.781Z,31.50
2018-08-28T16:11:38.823Z,31.70
2018-08-28T16:14:07.885Z,31.40
2018-08-28T16:16:38.678Z,31.40
2018-08-28T16:19:07.734Z,31.40
2018-08-28T16:21:41.998Z,31.50
2018-08-28T16:24:11.074Z,31.50
2018-08-28T16:26:40.317Z,31.50
2018-08-28T16:29:09.593Z,31.30
2018-08-28T16:31:38.633Z,31.40
2018-08-28T16:34:09.210Z,31.40
2018-08-28T16:36:38.453Z,31.50
2018-08-28T16:39:08.937Z,31.60
2018-08-28T16:41:38.334Z,31.50
2018-08-28T16:44:07.842Z,31.50
2018-08-28T16:46:36.991Z,31.40
2018-08-28T16:49:06.094Z,31.50
2018-08-28T16:51:35.125Z,31.30
2018-08-28T16:54:04.144Z,31.40
2018-08-28T16:56:33.262Z,31.20
2018-08-28T16:59:02.285Z,31.00
2018-08-28T17:01:31.369Z,31.00
2018-08-28T17:04:00.350Z,31.00
2018-08-28T17:06:29.386Z,30.80
2018-08-28T17:08:58.386Z,30.60
2018-08-28T17:11:27.423Z,30.20
2018-08-28T17:13:56.467Z,30.00
2018-08-28T17:16:25.486Z,29.60
2018-08-28T17:18:54.524Z,29.20
2018-08-28T17:21:23.521Z,28.90
2018-08-28T17:23:52.552Z,28.70
2018-08-28T17:26:21.585Z,28.40
2018-08-28T17:31:19.130Z,27.80
2018-08-28T17:33:48.165Z,27.40
2018-08-28T17:36:17.150Z,27.00
2018-08-28T17:38:46.194Z,26.80
2018-08-28T17:41:15.202Z,26.80
2018-08-28T17:43:44.211Z,26.50
2018-08-28T17:46:13.190Z,26.30
2018-08-28T17:48:42.239Z,26.00
2018-08-28T17:51:11.227Z,25.60
2018-08-28T17:53:40.246Z,25.50
2018-08-28T17:56:09.234Z,25.40
2018-08-28T17:58:38.274Z,25.20
2018-08-28T18:01:07.273Z,25.00
2018-08-28T18:03:36.298Z,24.90
2018-08-28T18:06:05.326Z,24.80
2018-08-28T18:08:34.365Z,24.50
2018-08-28T18:11:03.348Z,24.10
2018-08-28T18:16:02.376Z,23.50
2018-08-28T18:18:31.421Z,23.30
2018-08-28T18:21:00.662Z,23.20
2018-08-28T18:23:29.694Z,23.20
2018-08-28T18:25:58.676Z,23.20
2018-08-28T18:28:27.705Z,22.80
2018-08-28T18:30:56.710Z,22.60
2018-08-28T18:33:25.721Z,22.30
2018-08-28T18:35:54.778Z,22.30
2018-08-28T18:38:23.846Z,22.20
2018-08-28T18:40:52.919Z,22.20
2018-08-28T18:43:22.118Z,22.10
2018-08-28T18:45:51.246Z,22.10
2018-08-28T18:48:20.283Z,21.90
2018-08-28T18:50:49.378Z,21.80
2018-08-28T18:53:18.388Z,21.70
2018-08-28T18:55:47.497Z,21.50
2018-08-28T18:58:16.492Z,21.30
2018-08-28T19:00:45.517Z,21.20
2018-08-28T19:03:31.113Z,21.10
2018-08-28T19:06:00.130Z,21.00
2018-08-28T19:08:29.141Z,20.90
2018-08-28T19:10:58.174Z,20.80
2018-08-28T19:13:27.194Z,20.70
2018-08-28T19:15:56.225Z,20.50
2018-08-28T19:18:25.245Z,20.40
2018-08-28T19:20:54.350Z,20.30
2018-08-28T19:23:23.326Z,20.30
2018-08-28T19:25:54.637Z,20.20
2018-08-28T19:28:23.627Z,19.90
2018-08-28T19:30:52.696Z,19.80
2018-08-28T19:33:21.680Z,19.70
2018-08-28T19:35:50.689Z,19.70
2018-08-28T19:38:19.686Z,19.40
2018-08-28T19:40:48.708Z,19.40
2018-08-28T19:43:17.924Z,19.20
2018-08-28T19:45:46.877Z,19.20
2018-08-28T19:48:15.935Z,19.20
2018-08-28T19:50:45.006Z,19.00
2018-08-28T19:53:15.098Z,18.80
2018-08-28T19:55:44.149Z,18.70
2018-08-28T19:58:13.200Z,18.60
2018-08-28T20:00:42.240Z,18.50
2018-08-28T20:03:11.233Z,18.50
2018-08-28T20:05:40.257Z,18.40
2018-08-28T20:08:09.292Z,18.40
2018-08-28T20:10:38.406Z,18.30
2018-08-28T20:13:07.436Z,18.20
2018-08-28T20:15:36.452Z,18.10
2018-08-28T20:18:05.453Z,17.90
2018-08-28T20:20:41.337Z,17.90
2018-08-28T20:23:10.341Z,17.90
2018-08-28T20:25:39.442Z,17.80
2018-08-28T20:28:08.445Z,17.70
2018-08-28T20:30:37.446Z,17.60
2018-08-28T20:33:06.461Z,17.60
2018-08-28T20:35:35.486Z,17.40
2018-08-28T20:38:04.527Z,17.40
2018-08-28T20:40:33.544Z,17.30
2018-08-28T20:43:02.545Z,17.20
2018-08-28T20:45:31.653Z,17.10
2018-08-28T20:48:00.714Z,17.10
2018-08-28T20:50:29.766Z,17.10
2018-08-28T20:52:58.796Z,17.10
2018-08-28T20:55:27.785Z,17.10
2018-08-28T20:57:56.836Z,17.00
2018-08-28T21:00:25.961Z,16.90
2018-08-28T21:02:55.029Z,16.90
2018-08-28T21:05:28.813Z,16.80
2018-08-28T21:07:59.446Z,16.70
2018-08-28T21:10:28.721Z,16.70
2018-08-28T21:12:57.927Z,16.50
2018-08-28T21:15:26.845Z,16.30
2018-08-28T21:17:55.889Z,16.20
2018-08-28T21:20:24.900Z,16.10
2018-08-28T21:22:54.042Z,16.10
2018-08-28T21:25:23.064Z,16.00
2018-08-28T21:27:52.135Z,15.90
2018-08-28T21:30:21.152Z,15.80
2018-08-28T21:32:50.174Z,15.80
2018-08-28T21:35:19.216Z,15.70
2018-08-28T21:37:48.242Z,15.70
2018-08-28T21:40:17.284Z,15.70
2018-08-28T21:42:46.313Z,15.70
2018-08-28T21:45:15.305Z,15.60
2018-08-28T21:47:44.401Z,15.60
2018-08-28T21:50:13.435Z,15.50
2018-08-28T21:52:42.445Z,15.40
2018-08-28T21:55:11.461Z,15.40
2018-08-28T21:57:40.494Z,15.40
2018-08-28T22:00:09.571Z,15.30
2018-08-28T22:02:38.606Z,15.30
2018-08-28T22:05:07.634Z,15.30
2018-08-28T22:07:41.858Z,15.20
2018-08-28T22:10:11.198Z,15.20
2018-08-28T22:12:40.214Z,15.30
2018-08-28T22:15:13.400Z,15.20
2018-08-28T22:17:43.025Z,15.10
2018-08-28T22:20:12.107Z,15.10
2018-08-28T22:22:41.147Z,15.00
2018-08-28T22:25:10.137Z,14.90
2018-08-28T22:27:39.155Z,15.00
2018-08-28T22:30:08.869Z,14.90
2018-08-28T22:32:37.940Z,14.80
2018-08-28T22:35:07.056Z,14.80
2018-08-28T22:37:36.189Z,14.70
2018-08-28T22:40:07.145Z,14.60
2018-08-28T22:42:36.177Z,14.50
2018-08-28T22:45:05.279Z,14.40
2018-08-28T22:47:34.281Z,14.40
2018-08-28T22:50:03.355Z,14.40
2018-08-28T22:52:32.803Z,14.40
2018-08-28T22:55:01.805Z,14.30
2018-08-28T22:57:30.802Z,14.30
2018-08-28T22:59:59.821Z,14.30
2018-08-28T23:02:28.807Z,14.20
2018-08-28T23:04:57.822Z,14.20
2018-08-28T23:07:26.833Z,14.20
2018-08-28T23:09:55.873Z,14.20
2018-08-28T23:12:24.907Z,14.10
2018-08-28T23:14:53.925Z,14.10
2018-08-28T23:17:23.121Z,14.00
2018-08-28T23:19:52.136Z,13.90
2018-08-28T23:22:21.120Z,13.90
2018-08-28T23:24:50.137Z,13.90
2018-08-28T23:27:19.140Z,13.90
2018-08-28T23:29:48.168Z,13.90
2018-08-28T23:32:17.165Z,13.90
2018-08-28T23:34:46.181Z,13.90
2018-08-28T23:37:15.165Z,13.90
2018-08-28T23:39:44.180Z,13.90
2018-08-28T23:42:13.165Z,14.00
2018-08-28T23:44:42.173Z,13.90
2018-08-28T23:47:11.173Z,13.90
2018-08-28T23:49:40.269Z,13.90
2018-08-28T23:52:09.270Z,13.90
2018-08-28T23:54:38.301Z,13.80
2018-08-28T23:57:07.298Z,13.70
2018-08-28T23:59:36.417Z,13.60
